createdAt,value
2019-05-11T00:00:52.072Z,5.00
2019-05-11T00:03:21.150Z,6.67
2019-05-11T00:05:49.270Z,6.22
2019-05-11T00:08:17.370Z,6.30
2019-05-11T00:10:46.634Z,6.40
2019-05-11T00:13:14.492Z,6.22
2019-05-11T00:15:43.434Z,6.65
2019-05-11T00:18:12.424Z,6.20
2019-05-11T00:20:40.254Z,6.58
2019-05-11T00:23:10.105Z,10.50
2019-05-11T00:25:37.998Z,6.50
2019-05-11T00:28:05.944Z,9.48
2019-05-11T00:30:34.507Z,8.88
2019-05-11T00:33:03.159Z,10.15
2019-05-11T00:35:31.002Z,9.23
2019-05-11T00:37:58.838Z,10.75
2019-05-11T00:40:26.773Z,10.08
2019-05-11T00:42:55.010Z,8.78
2019-05-11T00:45:23.837Z,5.30
2019-05-11T00:47:51.675Z,5.37
2019-05-11T00:50:37.913Z,4.72
2019-05-11T00:52:54.413Z,4.97
2019-05-11T00:55:22.266Z,4.12
2019-05-11T00:57:50.122Z,5.42
2019-05-11T01:00:19.044Z,4.90
2019-05-11T01:02:46.916Z,3.72
2019-05-11T01:05:14.873Z,5.78
2019-05-11T01:07:43.054Z,4.92
2019-05-11T01:10:23.864Z,5.12
2019-05-11T01:12:41.847Z,35.00
2019-05-11T01:15:10.308Z,5.97
2019-05-11T01:17:38.456Z,4.80
2019-05-11T01:20:07.304Z,4.35
2019-05-11T01:22:35.867Z,6.45
2019-05-11T01:25:04.278Z,6.05
2019-05-11T01:27:32.090Z,6.30
2019-05-11T01:30:03.763Z,6.33
2019-05-11T01:32:32.142Z,6.15
2019-05-11T01:35:01.554Z,7.15
2019-05-11T01:37:29.487Z,7.78
2019-05-11T01:39:57.334Z,8.40
2019-05-11T01:42:25.635Z,7.70
2019-05-11T01:44:53.791Z,7.20
2019-05-11T01:47:24.585Z,8.20
2019-05-11T01:49:52.544Z,7.90
2019-05-11T01:52:20.440Z,7.58
2019-05-11T01:54:48.279Z,8.23
2019-05-11T01:57:19.430Z,7.80
2019-05-11T01:59:47.565Z,7.85
2019-05-11T02:02:15.452Z,7.22
2019-05-11T02:04:43.269Z,7.90
2019-05-11T02:07:11.122Z,6.80
2019-05-11T02:09:39.084Z,8.18
2019-05-11T02:12:07.268Z,8.08
2019-05-11T02:14:35.497Z,7.58
2019-05-11T02:17:03.399Z,7.78
2019-05-11T02:19:31.348Z,8.63
2019-05-11T02:21:59.608Z,7.58
2019-05-11T02:24:27.591Z,8.25
2019-05-11T02:26:55.699Z,9.10
2019-05-11T02:29:23.950Z,8.10
2019-05-11T02:31:51.862Z,7.30
2019-05-11T02:34:20.529Z,7.92
2019-05-11T02:36:48.446Z,8.55
2019-05-11T02:39:18.926Z,8.25
2019-05-11T02:41:46.994Z,11.10
2019-05-11T02:44:16.247Z,8.38
2019-05-11T02:46:44.585Z,6.80
2019-05-11T02:49:12.429Z,7.35
2019-05-11T02:51:40.511Z,6.40
2019-05-11T02:54:11.208Z,8.58
2019-05-11T02:56:39.533Z,6.87
2019-05-11T02:59:07.396Z,5.97
2019-05-11T03:01:35.534Z,8.58
2019-05-11T03:04:03.995Z,7.83
2019-05-11T03:06:32.211Z,6.80
2019-05-11T03:09:00.517Z,6.83
2019-05-11T03:11:28.399Z,8.60
2019-05-11T03:13:56.736Z,6.10
2019-05-11T03:16:24.624Z,7.83
2019-05-11T03:18:54.095Z,7.60
2019-05-11T03:21:24.587Z,5.80
2019-05-11T03:23:52.684Z,6.33
2019-05-11T03:26:20.511Z,6.55
2019-05-11T03:28:48.364Z,6.60
2019-05-11T03:31:16.225Z,6.17
2019-05-11T03:33:44.191Z,14.30
2019-05-11T03:36:12.047Z,29.87
2019-05-11T03:38:40.258Z,11.68
2019-05-11T03:41:09.357Z,7.72
2019-05-11T03:43:37.233Z,8.10
2019-05-11T03:46:05.118Z,6.72
2019-05-11T03:48:33.010Z,6.70
2019-05-11T03:51:01.653Z,7.28
2019-05-11T03:53:30.676Z,7.45
2019-05-11T03:55:59.511Z,6.70
2019-05-11T03:58:33.523Z,7.30
2019-05-11T04:01:01.781Z,10.72
2019-05-11T04:03:30.908Z,8.90
2019-05-11T04:05:58.607Z,9.45
2019-05-11T04:08:28.895Z,12.43
2019-05-11T04:10:56.483Z,10.03
2019-05-11T04:13:24.450Z,8.53
2019-05-11T04:15:52.346Z,12.43
2019-05-11T04:18:19.927Z,16.48
2019-05-11T04:20:47.688Z,8.68
2019-05-11T04:23:15.545Z,11.90
2019-05-11T04:25:43.456Z,8.90
2019-05-11T04:28:11.196Z,7.25
2019-05-11T04:30:39.102Z,6.60
2019-05-11T04:33:09.031Z,8.40
2019-05-11T04:35:36.612Z,6.40
2019-05-11T04:38:06.238Z,7.10
2019-05-11T04:40:34.243Z,7.05
2019-05-11T04:43:02.806Z,7.60
2019-05-11T04:45:31.031Z,6.33
2019-05-11T04:47:59.262Z,7.03
2019-05-11T04:50:27.417Z,6.87
2019-05-11T04:52:55.380Z,7.08
2019-05-11T04:55:23.152Z,14.03
2019-05-11T04:57:53.114Z,7.87
2019-05-11T05:00:21.231Z,6.85
2019-05-11T05:02:48.862Z,5.92
2019-05-11T05:05:16.566Z,6.65
2019-05-11T05:07:48.988Z,7.22
2019-05-11T05:10:19.814Z,6.25
2019-05-11T05:12:50.759Z,7.08
2019-05-11T05:15:14.974Z,8.08
2019-05-11T05:17:43.115Z,8.88
2019-05-11T05:20:13.186Z,10.65
2019-05-11T05:22:41.078Z,9.48
2019-05-11T05:25:09.375Z,10.65
2019-05-11T05:27:37.250Z,8.25
2019-05-11T05:30:05.545Z,11.70
2019-05-11T05:32:33.420Z,11.85
2019-05-11T05:35:01.550Z,10.75
2019-05-11T05:37:31.744Z,39.20
2019-05-11T05:39:59.440Z,7.87
2019-05-11T05:42:26.092Z,8.13
2019-05-11T05:44:53.689Z,6.12
2019-05-11T05:47:21.296Z,5.22
2019-05-11T05:49:49.651Z,6.20
2019-05-11T05:52:17.237Z,5.12
2019-05-11T05:54:44.818Z,10.20
2019-05-11T05:57:12.446Z,6.47
2019-05-11T05:59:42.682Z,4.67
2019-05-11T06:02:10.320Z,5.55
2019-05-11T06:04:37.914Z,5.30
2019-05-11T06:07:05.607Z,5.50
2019-05-11T06:09:33.422Z,3.67
2019-05-11T06:12:01.022Z,6.00
2019-05-11T06:14:28.655Z,4.55
2019-05-11T06:16:56.908Z,5.65
2019-05-11T06:19:24.834Z,4.50
2019-05-11T06:21:52.758Z,6.80
2019-05-11T06:24:20.350Z,4.80
2019-05-11T06:26:47.988Z,3.70
2019-05-11T06:29:15.970Z,10.98
2019-05-11T06:31:43.894Z,4.28
2019-05-11T06:34:11.707Z,3.27
2019-05-11T06:36:39.309Z,5.03
2019-05-11T06:39:07.917Z,3.77
2019-05-11T06:41:35.580Z,3.30
2019-05-11T06:44:04.004Z,2.90
2019-05-11T06:46:34.970Z,4.30
2019-05-11T06:49:02.121Z,15.05
2019-05-11T06:51:30.016Z,4.10
2019-05-11T06:53:57.675Z,6.83
2019-05-11T06:56:25.378Z,3.30
2019-05-11T06:58:53.529Z,3.40
2019-05-11T07:01:21.450Z,3.40
2019-05-11T07:03:49.347Z,3.55
2019-05-11T07:06:19.289Z,3.10
2019-05-11T07:08:47.105Z,5.00
2019-05-11T07:11:14.993Z,2.27
2019-05-11T07:13:44.868Z,2.00
2019-05-11T07:16:16.085Z,2.00
2019-05-11T07:18:43.949Z,2.15
2019-05-11T07:21:11.801Z,2.10
2019-05-11T07:23:41.740Z,2.10
2019-05-11T07:26:09.547Z,1.62
2019-05-11T07:28:37.438Z,3.30
2019-05-11T07:31:05.756Z,2.72
2019-05-11T07:33:33.611Z,5.03
2019-05-11T07:36:04.165Z,2.50
2019-05-11T07:38:31.826Z,2.23
2019-05-11T07:40:59.645Z,2.20
2019-05-11T07:43:28.858Z,2.47
2019-05-11T07:45:58.574Z,2.93
2019-05-11T07:48:27.830Z,4.50
2019-05-11T07:50:58.549Z,2.30
2019-05-11T07:53:27.887Z,2.00
2019-05-11T07:55:57.937Z,1.70
2019-05-11T07:58:28.309Z,2.70
2019-05-11T08:00:55.364Z,3.07
2019-05-11T08:03:25.216Z,2.40
2019-05-11T08:05:52.807Z,1.97
2019-05-11T08:08:20.534Z,1.70
2019-05-11T08:10:49.200Z,2.20
2019-05-11T08:13:18.271Z,2.00
2019-05-11T08:15:48.642Z,1.37
2019-05-11T08:18:16.047Z,3.13
2019-05-11T08:20:43.944Z,1.83
2019-05-11T08:23:11.738Z,2.07
2019-05-11T08:25:39.986Z,2.53
2019-05-11T08:28:11.803Z,1.60
2019-05-11T08:30:38.202Z,3.37
2019-05-11T08:33:08.669Z,3.60
2019-05-11T08:35:38.804Z,6.73
2019-05-11T08:38:08.922Z,1.53
2019-05-11T08:40:37.907Z,1.10
2019-05-11T08:43:05.829Z,1.60
2019-05-11T08:45:35.643Z,2.13
2019-05-11T08:48:04.553Z,1.30
2019-05-11T08:50:41.028Z,1.20
2019-05-11T08:53:08.790Z,6.03
2019-05-11T08:55:38.217Z,1.70
2019-05-11T08:58:07.900Z,1.50
2019-05-11T09:00:35.993Z,1.83
2019-05-11T09:03:04.814Z,1.27
2019-05-11T09:05:32.527Z,1.17
2019-05-11T09:08:00.951Z,1.20
2019-05-11T09:10:29.863Z,1.70
2019-05-11T09:12:59.181Z,1.67
2019-05-11T09:15:36.389Z,1.03
2019-05-11T09:17:57.877Z,1.90
2019-05-11T09:20:28.510Z,1.10
2019-05-11T09:22:58.732Z,1.93
2019-05-11T09:25:38.306Z,1.90
2019-05-11T09:28:08.588Z,1.30
2019-05-11T09:30:37.786Z,1.67
2019-05-11T09:33:05.716Z,1.53
2019-05-11T09:35:46.688Z,2.57
2019-05-11T09:38:03.531Z,1.13
2019-05-11T09:40:31.312Z,1.40
2019-05-11T09:42:59.237Z,1.60
2019-05-11T09:45:27.910Z,2.43
2019-05-11T09:47:58.029Z,1.63
2019-05-11T09:50:28.537Z,1.30
2019-05-11T09:53:08.512Z,3.53
2019-05-11T09:55:39.959Z,1.20
2019-05-11T09:58:08.551Z,3.53
2019-05-11T10:00:38.651Z,3.57
2019-05-11T10:03:08.286Z,1.10
2019-05-11T10:05:38.307Z,1.30
2019-05-11T10:08:07.981Z,1.43
2019-05-11T10:10:35.631Z,7.00
2019-05-11T10:13:05.294Z,3.80
2019-05-11T10:15:34.215Z,1.13
2019-05-11T10:18:02.250Z,1.73
2019-05-11T10:20:30.378Z,1.70
2019-05-11T10:22:59.014Z,1.00
2019-05-11T10:25:28.722Z,1.90
2019-05-11T10:27:58.927Z,1.70
2019-05-11T10:30:28.091Z,1.40
2019-05-11T10:32:57.811Z,2.17
2019-05-11T10:35:28.834Z,1.40
2019-05-11T10:37:59.085Z,1.00
2019-05-11T10:40:28.280Z,1.17
2019-05-11T10:42:58.741Z,1.13
2019-05-11T10:45:28.618Z,1.00
2019-05-11T10:48:00.362Z,1.10
2019-05-11T10:50:28.611Z,2.33
2019-05-11T10:52:59.016Z,1.53
2019-05-11T10:55:27.970Z,3.40
2019-05-11T10:57:57.992Z,0.90
2019-05-11T11:00:28.310Z,1.17
2019-05-11T11:02:57.710Z,1.17
2019-05-11T11:05:27.771Z,1.00
2019-05-11T11:08:00.089Z,1.23
2019-05-11T11:10:31.544Z,1.33
2019-05-11T11:13:02.720Z,1.60
2019-05-11T11:15:30.308Z,5.70
2019-05-11T11:17:58.068Z,0.93
2019-05-11T11:20:28.056Z,0.97
2019-05-11T11:22:58.548Z,1.30
2019-05-11T11:25:28.357Z,1.37
2019-05-11T11:27:57.875Z,5.80
2019-05-11T11:30:28.414Z,1.90
2019-05-11T11:32:55.868Z,3.17
2019-05-11T11:35:23.741Z,1.50
2019-05-11T11:37:54.454Z,1.10
2019-05-11T11:40:22.339Z,1.03
2019-05-11T11:42:50.188Z,2.10
2019-05-11T11:45:18.528Z,1.20
2019-05-11T11:47:49.030Z,1.07
2019-05-11T11:50:17.815Z,1.43
2019-05-11T11:52:47.744Z,0.77
2019-05-11T11:55:15.683Z,1.33
2019-05-11T11:57:44.113Z,2.90
2019-05-11T12:00:12.067Z,1.10
2019-05-11T12:02:42.976Z,1.20
2019-05-11T12:05:10.949Z,3.67
2019-05-11T12:07:40.688Z,1.40
2019-05-11T12:10:09.019Z,1.33
2019-05-11T12:12:38.657Z,1.20
2019-05-11T12:15:10.693Z,1.80
2019-05-11T12:17:39.548Z,2.00
2019-05-11T12:20:08.978Z,2.50
2019-05-11T12:22:35.957Z,1.87
2019-05-11T12:25:08.135Z,3.70
2019-05-11T12:27:38.344Z,1.17
2019-05-11T12:30:08.814Z,1.60
2019-05-11T12:32:44.202Z,1.73
2019-05-11T12:35:13.208Z,1.53
2019-05-11T12:37:42.184Z,2.17
2019-05-11T12:40:10.906Z,3.63
2019-05-11T12:42:40.468Z,2.20
2019-05-11T12:45:09.117Z,2.47
2019-05-11T12:47:38.507Z,2.97
2019-05-11T12:50:08.032Z,6.87
2019-05-11T12:52:40.849Z,2.40
2019-05-11T12:55:09.227Z,3.87
2019-05-11T12:57:38.758Z,3.03
2019-05-11T13:00:08.625Z,3.13
2019-05-11T13:02:38.865Z,2.67
2019-05-11T13:05:08.698Z,2.60
2019-05-11T13:07:38.963Z,3.97
2019-05-11T13:10:08.285Z,4.17
2019-05-11T13:12:38.389Z,2.37
2019-05-11T13:15:08.342Z,1.50
2019-05-11T13:17:41.618Z,2.83
2019-05-11T13:20:12.894Z,6.10
2019-05-11T13:22:39.826Z,11.37
2019-05-11T13:25:08.619Z,2.37
2019-05-11T13:27:38.940Z,2.63
2019-05-11T13:30:08.021Z,2.50
2019-05-11T13:32:40.293Z,2.87
2019-05-11T13:35:09.201Z,2.50
2019-05-11T13:37:38.648Z,2.50
2019-05-11T13:40:07.850Z,2.20
2019-05-11T13:42:38.323Z,2.30
2019-05-11T13:45:05.835Z,2.30
2019-05-11T13:47:33.424Z,1.60
2019-05-11T13:50:01.096Z,1.53
2019-05-11T13:52:28.976Z,4.70
2019-05-11T13:54:58.510Z,1.20
2019-05-11T13:57:29.921Z,1.40
2019-05-11T13:59:58.086Z,4.77
2019-05-11T14:02:28.558Z,2.70
2019-05-11T14:04:58.492Z,2.30
2019-05-11T14:07:30.518Z,2.00
2019-05-11T14:09:58.977Z,7.40
2019-05-11T14:12:29.782Z,8.70
2019-05-11T14:14:57.748Z,2.57
2019-05-11T14:17:31.652Z,2.83
2019-05-11T14:19:58.518Z,2.37
2019-05-11T14:22:28.203Z,2.63
2019-05-11T14:24:58.394Z,6.43
2019-05-11T14:27:27.734Z,2.80
2019-05-11T14:29:57.346Z,7.93
2019-05-11T14:32:25.570Z,3.70
2019-05-11T14:34:53.369Z,3.77
2019-05-11T14:37:22.160Z,5.20
2019-05-11T14:39:51.156Z,5.17
2019-05-11T14:42:22.292Z,2.77
2019-05-11T14:44:50.618Z,7.20
2019-05-11T14:47:18.234Z,3.17
2019-05-11T14:49:48.460Z,3.00
2019-05-11T14:52:19.010Z,3.63
2019-05-11T14:54:50.301Z,3.73
2019-05-11T14:57:18.759Z,5.37
2019-05-11T14:59:48.279Z,3.80
2019-05-11T15:02:37.794Z,4.70
2019-05-11T15:05:08.876Z,2.43
2019-05-11T15:07:38.417Z,3.47
2019-05-11T15:10:08.041Z,1.80
2019-05-11T15:12:37.996Z,4.20
2019-05-11T15:15:07.982Z,4.73
2019-05-11T15:17:35.807Z,5.87
2019-05-11T15:20:04.151Z,2.87
2019-05-11T15:22:32.015Z,2.30
2019-05-11T15:24:59.898Z,2.50
2019-05-11T15:27:29.775Z,2.20
2019-05-11T15:30:05.374Z,3.63
2019-05-11T15:32:32.946Z,1.50
2019-05-11T15:35:01.151Z,2.33
2019-05-11T15:37:29.122Z,1.80
2019-05-11T15:40:12.382Z,3.33
2019-05-11T15:42:41.439Z,2.80
2019-05-11T15:45:10.619Z,1.47
2019-05-11T15:47:40.265Z,1.00
2019-05-11T15:50:10.877Z,1.50
2019-05-11T15:52:43.107Z,1.40
2019-05-11T15:55:12.387Z,2.70
2019-05-11T15:57:40.617Z,1.23
2019-05-11T16:00:10.986Z,1.97
2019-05-11T16:02:41.248Z,1.33
2019-05-11T16:05:09.273Z,1.20
2019-05-11T16:07:41.142Z,1.27
2019-05-11T16:10:09.745Z,1.77
2019-05-11T16:12:39.036Z,3.03
2019-05-11T16:15:08.832Z,1.50
2019-05-11T16:17:40.079Z,1.43
2019-05-11T16:20:09.065Z,2.70
2019-05-11T16:22:38.477Z,5.60
2019-05-11T16:25:08.771Z,7.83
2019-05-11T16:27:38.165Z,1.70
2019-05-11T16:30:07.090Z,1.27
2019-05-11T16:32:34.920Z,1.53
2019-05-11T16:35:03.433Z,1.17
2019-05-11T16:37:32.311Z,1.60
2019-05-11T16:40:00.478Z,1.50
2019-05-11T16:42:30.658Z,1.43
2019-05-11T16:44:59.594Z,1.93
2019-05-11T16:47:28.557Z,4.33
2019-05-11T16:49:57.995Z,2.10
2019-05-11T16:52:27.988Z,2.77
2019-05-11T16:54:58.321Z,2.63
2019-05-11T16:57:25.958Z,3.60
2019-05-11T16:59:53.771Z,3.00
2019-05-11T17:02:23.640Z,2.00
2019-05-11T17:04:51.565Z,2.60
2019-05-11T17:07:22.735Z,3.30
2019-05-11T17:09:50.565Z,2.80
2019-05-11T17:12:18.846Z,3.27
2019-05-11T17:14:58.785Z,5.67
2019-05-11T17:17:28.272Z,6.07
2019-05-11T17:19:58.931Z,4.55
2019-05-11T17:22:31.137Z,6.85
2019-05-11T17:24:59.097Z,4.60
2019-05-11T17:27:29.795Z,2.98
2019-05-11T17:29:59.334Z,3.27
2019-05-11T17:32:29.265Z,4.72
2019-05-11T17:34:58.179Z,3.75
2019-05-11T17:37:28.663Z,3.75
2019-05-11T17:39:58.535Z,4.00
2019-05-11T17:42:29.488Z,3.50
2019-05-11T17:44:58.897Z,3.92
2019-05-11T17:47:28.410Z,3.50
2019-05-11T17:50:02.937Z,4.60
2019-05-11T17:52:29.371Z,4.05
2019-05-11T17:54:57.212Z,4.60
2019-05-11T17:57:27.596Z,7.28
2019-05-11T17:59:57.937Z,5.03
2019-05-11T18:02:28.639Z,6.67
2019-05-11T18:04:58.305Z,7.53
2019-05-11T18:07:28.421Z,6.62
2019-05-11T18:09:55.889Z,10.58
2019-05-11T18:12:23.785Z,12.82
2019-05-11T18:14:51.536Z,13.58
2019-05-11T18:17:19.547Z,14.15
2019-05-11T18:19:49.566Z,9.70
2019-05-11T18:22:17.802Z,11.85
2019-05-11T18:24:45.948Z,10.88
2019-05-11T18:27:13.846Z,9.95
2019-05-11T18:29:41.632Z,9.35
2019-05-11T18:32:09.629Z,10.90
2019-05-11T18:34:37.766Z,14.45
2019-05-11T18:37:08.812Z,12.23
2019-05-11T18:39:37.898Z,14.50
2019-05-11T18:42:08.122Z,11.75
2019-05-11T18:44:37.815Z,8.95
2019-05-11T18:47:05.313Z,10.40
2019-05-11T18:49:33.620Z,10.68
2019-05-11T18:52:01.524Z,8.53
2019-05-11T18:54:29.389Z,8.18
2019-05-11T18:56:58.909Z,103.67
2019-05-11T18:59:28.367Z,69.12
2019-05-11T19:01:58.500Z,56.10
2019-05-11T19:04:28.997Z,21.80
2019-05-11T19:07:14.196Z,10.25
2019-05-11T19:09:32.571Z,13.78
2019-05-11T19:12:00.361Z,8.43
2019-05-11T19:14:28.285Z,8.43
2019-05-11T19:16:58.860Z,6.90
2019-05-11T19:19:26.598Z,7.47
2019-05-11T19:21:54.592Z,6.87
2019-05-11T19:24:23.991Z,6.35
2019-05-11T19:26:54.479Z,5.90
2019-05-11T19:29:22.361Z,5.60
2019-05-11T19:31:50.318Z,8.10
2019-05-11T19:34:20.453Z,6.50
2019-05-11T19:36:53.919Z,8.45
2019-05-11T19:39:21.678Z,13.83
2019-05-11T19:41:49.502Z,10.30
2019-05-11T19:44:18.714Z,9.78
2019-05-11T19:46:47.714Z,9.28
2019-05-11T19:49:15.602Z,11.15
2019-05-11T19:51:43.484Z,12.35
2019-05-11T19:54:11.279Z,12.70
2019-05-11T19:56:39.258Z,13.62
2019-05-11T19:59:08.589Z,14.20
2019-05-11T20:01:36.575Z,10.38
2019-05-11T20:04:04.400Z,14.85
2019-05-11T20:06:32.407Z,10.00
2019-05-11T20:09:00.501Z,9.95
2019-05-11T20:11:28.381Z,7.78
2019-05-11T20:13:58.833Z,9.35
2019-05-11T20:16:26.895Z,8.55
2019-05-11T20:18:57.750Z,13.13
2019-05-11T20:21:25.670Z,10.72
2019-05-11T20:23:53.544Z,7.62
2019-05-11T20:26:21.364Z,8.63
2019-05-11T20:28:53.775Z,8.38
2019-05-11T20:31:21.553Z,8.13
2019-05-11T20:33:53.325Z,10.70
2019-05-11T20:36:21.383Z,7.70
2019-05-11T20:38:49.306Z,12.25
2019-05-11T20:41:17.966Z,9.68
2019-05-11T20:43:47.954Z,14.83
2019-05-11T20:46:15.710Z,13.38
2019-05-11T20:48:45.741Z,16.15
2019-05-11T20:51:13.517Z,19.70
2019-05-11T20:53:41.456Z,18.90
2019-05-11T20:56:09.312Z,17.25
2019-05-11T20:58:55.684Z,19.70
2019-05-11T21:01:24.511Z,14.98
2019-05-11T21:03:58.472Z,15.55
2019-05-11T21:06:28.973Z,22.32
2019-05-11T21:08:56.524Z,14.50
2019-05-11T21:11:26.831Z,12.58
2019-05-11T21:13:54.684Z,12.78
2019-05-11T21:16:22.555Z,12.88
2019-05-11T21:18:51.240Z,12.65
2019-05-11T21:21:19.869Z,12.40
2019-05-11T21:23:51.122Z,12.15
2019-05-11T21:26:19.035Z,13.65
2019-05-11T21:28:48.711Z,14.95
2019-05-11T21:31:18.626Z,12.00
2019-05-11T21:33:46.544Z,13.58
2019-05-11T21:36:14.757Z,13.50
2019-05-11T21:38:43.551Z,15.20
2019-05-11T21:41:11.437Z,11.48
2019-05-11T21:43:40.144Z,11.30
2019-05-11T21:46:08.319Z,10.63
2019-05-11T21:48:38.556Z,10.90
2019-05-11T21:51:08.685Z,11.73
2019-05-11T21:53:38.209Z,11.57
2019-05-11T21:56:08.072Z,11.50
2019-05-11T21:58:37.804Z,10.58
2019-05-11T22:01:06.222Z,13.75
2019-05-11T22:03:35.352Z,10.85
2019-05-11T22:06:03.490Z,11.03
2019-05-11T22:08:31.497Z,11.28
2019-05-11T22:11:00.033Z,7.00
2019-05-11T22:13:31.324Z,8.15
2019-05-11T22:15:59.151Z,6.05
2019-05-11T22:18:31.291Z,5.22
2019-05-11T22:20:57.908Z,5.75
2019-05-11T22:23:28.866Z,5.25
2019-05-11T22:25:58.716Z,4.20
2019-05-11T22:28:28.454Z,4.35
2019-05-11T22:30:56.646Z,8.40
2019-05-11T22:33:24.462Z,4.95
2019-05-11T22:35:52.326Z,5.92
2019-05-11T22:38:21.474Z,4.83
2019-05-11T22:40:49.294Z,5.10
2019-05-11T22:43:18.256Z,5.97
2019-05-11T22:45:48.509Z,6.10
2019-05-11T22:48:15.767Z,6.15
2019-05-11T22:50:43.868Z,4.90
2019-05-11T22:53:18.615Z,4.30
2019-05-11T22:55:45.922Z,4.65
2019-05-11T22:58:17.962Z,5.87
2019-05-11T23:00:46.153Z,4.25
2019-05-11T23:03:14.240Z,5.58
2019-05-11T23:05:42.027Z,4.95
2019-05-11T23:08:11.903Z,5.60
2019-05-11T23:10:40.905Z,4.62
2019-05-11T23:13:14.852Z,4.40
2019-05-11T23:15:43.613Z,4.25
2019-05-11T23:18:15.148Z,4.15
2019-05-11T23:20:43.072Z,4.70
2019-05-11T23:23:10.784Z,4.67
2019-05-11T23:25:38.730Z,4.17
2019-05-11T23:28:06.606Z,4.15
2019-05-11T23:30:34.466Z,4.45
2019-05-11T23:33:02.376Z,4.65
2019-05-11T23:35:39.139Z,4.45
2019-05-11T23:38:09.510Z,4.95
2019-05-11T23:40:38.078Z,4.55
2019-05-11T23:43:08.585Z,4.50
2019-05-11T23:45:38.227Z,4.33
2019-05-11T23:48:06.552Z,4.35
2019-05-11T23:50:34.209Z,5.15
2019-05-11T23:53:06.644Z,7.55
2019-05-11T23:55:32.012Z,10.28
2019-05-11T23:57:59.590Z,9.05
